Conditions Actuelle
Pluie



Pression
30.09 (inHG) - 1018.92 (mb)
Visibilité

4.0 (km) - 2.5 (miles)
   Température
12  °C
Température
12  °C
Point de Rosée
100  %
 Humidité
   Vitesse du Vent
19  km/h
10  kts
12  mph
5.4  m/s
   Direction du Vent
N
45°
E
90°
135°
S
180°
225°
O
270°
315°
 250°

Ouest Sud
Ouest
   Données D'Aéroport
LFBU
Angoulême-Brie-Champniers Airport
Metar :LFBU 280030Z AUTO 25010KT 4200 -RADZ BR OVC003 12/12 Q1019
28-01-2021 01:30
   Informations de métar brut
Le METAR brut est le format le plus courant au monde pour la transmission de données météorologiques d'observation. Il est hautement standardisé par l’Organisation de l’aviation civile internationale (OACI), ce qui lui permet d’être compris dans la plupart des pays du monde.
   API Information
Données fournies par
https://www.checkwx.com/weather/LFBU

Météo aéronautique fournissant des rapports météorologiques METAR, TAF, AIRMET, SIGMET et OUTLOOK
   © Info
CSS/SVG/PHP les scripts ont été développés pa weather34.com pour une utilisation dans le modèle weather34 © 2015-2021

Informations sur le guide fournies par Metar-Wikipedia